createdAt,value
2017-08-12T00:00:12.171Z,99.40
2017-08-12T00:02:39.674Z,99.50
2017-08-12T00:05:07.979Z,99.40
2017-08-12T00:07:35.579Z,99.40
2017-08-12T00:10:03.083Z,99.90
2017-08-12T00:12:30.611Z,99.90
2017-08-12T00:14:58.138Z,99.90
2017-08-12T00:17:25.662Z,99.90
2017-08-12T00:19:53.198Z,99.90
2017-08-12T00:22:21.495Z,99.90
2017-08-12T00:24:49.006Z,99.90
2017-08-12T00:27:16.530Z,99.90
2017-08-12T00:29:44.074Z,99.90
2017-08-12T00:32:11.600Z,99.90
2017-08-12T00:34:39.876Z,99.90
2017-08-12T00:37:07.405Z,99.90
2017-08-12T00:39:34.920Z,99.90
2017-08-12T00:42:02.486Z,99.90
2017-08-12T00:44:30.041Z,99.90
2017-08-12T00:46:57.582Z,99.90
2017-08-12T00:49:25.855Z,99.90
2017-08-12T00:51:54.132Z,99.90
2017-08-12T00:54:22.421Z,99.90
2017-08-12T00:56:50.690Z,99.90
2017-08-12T00:59:18.979Z,99.90
2017-08-12T01:01:46.486Z,99.90
2017-08-12T01:04:14.011Z,99.90
2017-08-12T01:06:41.518Z,99.90
2017-08-12T01:09:09.042Z,99.90
2017-08-12T01:11:36.550Z,99.90
2017-08-12T01:14:04.954Z,99.90
2017-08-12T01:16:33.015Z,99.90
2017-08-12T01:19:00.582Z,99.90
2017-08-12T01:21:28.095Z,99.90
2017-08-12T01:23:55.699Z,99.90
2017-08-12T01:26:23.219Z,99.90
2017-08-12T01:28:50.815Z,99.90
2017-08-12T01:31:18.342Z,99.90
2017-08-12T01:33:46.685Z,99.90
2017-08-12T01:36:14.319Z,99.90
2017-08-12T01:38:41.831Z,99.90
2017-08-12T01:41:09.426Z,99.90
2017-08-12T01:43:36.930Z,99.90
2017-08-12T01:46:04.542Z,99.90
2017-08-12T01:48:32.051Z,99.90
2017-08-12T01:50:59.664Z,99.90
2017-08-12T01:53:27.179Z,99.90
2017-08-12T01:55:54.782Z,99.90
2017-08-12T01:58:22.295Z,99.90
2017-08-12T02:00:49.812Z,99.90
2017-08-12T02:03:17.330Z,99.90
2017-08-12T02:05:45.635Z,99.90
2017-08-12T02:08:13.172Z,99.90
2017-08-12T02:10:41.438Z,99.90
2017-08-12T02:13:09.751Z,99.90
2017-08-12T02:15:37.961Z,99.90
2017-08-12T02:18:05.482Z,99.90
2017-08-12T02:20:33.030Z,99.90
2017-08-12T02:23:00.551Z,99.90
2017-08-12T02:25:28.056Z,99.90
2017-08-12T02:27:55.583Z,99.90
2017-08-12T02:30:23.876Z,99.90
2017-08-12T02:32:51.479Z,99.90
2017-08-12T02:35:18.982Z,99.90
2017-08-12T02:37:47.292Z,99.90
2017-08-12T02:40:14.820Z,99.90
2017-08-12T02:42:43.095Z,99.80
2017-08-12T02:45:11.382Z,99.90
2017-08-12T02:47:38.951Z,99.90
2017-08-12T02:50:06.517Z,99.90
2017-08-12T02:52:34.023Z,99.90
2017-08-12T02:55:01.544Z,99.90
2017-08-12T02:57:29.083Z,99.80
2017-08-12T02:59:56.607Z,99.40
2017-08-12T03:02:24.106Z,99.10
2017-08-12T03:04:51.632Z,99.10
2017-08-12T03:07:19.903Z,98.90
2017-08-12T03:09:48.191Z,98.80
2017-08-12T03:12:16.459Z,98.80
2017-08-12T03:14:44.756Z,99.00
2017-08-12T03:17:12.267Z,99.00
2017-08-12T03:19:39.775Z,98.70
2017-08-12T03:22:07.294Z,98.80
2017-08-12T03:24:34.799Z,99.10
2017-08-12T03:27:02.374Z,99.00
2017-08-12T03:29:29.915Z,99.30
2017-08-12T03:31:57.478Z,99.60
2017-08-12T03:34:24.987Z,99.90
2017-08-12T03:36:52.586Z,99.90
2017-08-12T03:39:20.095Z,99.90
2017-08-12T03:41:47.892Z,99.90
2017-08-12T03:44:16.186Z,99.90
2017-08-12T03:46:43.706Z,99.90
2017-08-12T03:49:11.302Z,99.90
2017-08-12T03:51:38.831Z,99.90
2017-08-12T03:54:07.107Z,99.90
2017-08-12T03:56:35.419Z,99.70
2017-08-12T03:59:02.927Z,99.70
2017-08-12T04:01:30.438Z,99.70
2017-08-12T04:03:57.959Z,99.80
2017-08-12T04:06:27.142Z,99.50
2017-08-12T04:08:54.663Z,99.40
2017-08-12T04:11:22.302Z,99.30
2017-08-12T04:13:49.861Z,99.40
2017-08-12T04:16:17.366Z,99.60
2017-08-12T04:18:44.988Z,99.80
2017-08-12T04:21:12.494Z,99.90
2017-08-12T04:23:40.015Z,99.90
2017-08-12T04:26:07.519Z,99.90
2017-08-12T04:28:35.042Z,99.90
2017-08-12T04:31:02.571Z,99.90
2017-08-12T04:33:30.099Z,99.90
2017-08-12T04:35:58.367Z,99.90
2017-08-12T04:38:25.896Z,99.90
2017-08-12T04:40:53.415Z,99.90
2017-08-12T04:43:20.974Z,99.90
2017-08-12T04:45:48.539Z,99.90
2017-08-12T04:48:16.091Z,99.90
2017-08-12T04:50:43.624Z,99.90
2017-08-12T04:53:11.906Z,99.90
2017-08-12T04:55:40.207Z,99.90
2017-08-12T04:58:07.767Z,99.90
2017-08-12T05:00:35.294Z,99.90
2017-08-12T05:03:02.891Z,99.90
2017-08-12T05:05:30.446Z,99.90
2017-08-12T05:07:58.846Z,99.90
2017-08-12T05:10:26.376Z,99.90
2017-08-12T05:12:54.656Z,99.90
2017-08-12T05:15:22.214Z,99.90
2017-08-12T05:17:49.943Z,99.90
2017-08-12T05:20:18.264Z,99.90
2017-08-12T05:22:45.795Z,99.90
2017-08-12T05:25:14.066Z,99.90
2017-08-12T05:27:42.351Z,99.90
2017-08-12T05:30:10.623Z,99.90
2017-08-12T05:32:38.907Z,99.90
2017-08-12T05:35:06.488Z,99.90
2017-08-12T05:37:34.038Z,99.90
2017-08-12T05:40:01.546Z,99.90
2017-08-12T05:42:29.070Z,99.90
2017-08-12T05:44:56.743Z,99.90
2017-08-12T05:47:24.267Z,99.90
2017-08-12T05:49:51.831Z,99.90
2017-08-12T05:52:19.357Z,99.90
2017-08-12T05:54:47.636Z,99.90
2017-08-12T05:57:15.907Z,99.90
2017-08-12T05:59:43.430Z,99.90
2017-08-12T06:02:10.931Z,99.90
2017-08-12T06:04:39.230Z,99.90
2017-08-12T06:07:06.799Z,99.90
2017-08-12T06:09:34.316Z,99.90
2017-08-12T06:12:02.951Z,99.90
2017-08-12T06:14:30.595Z,99.90
2017-08-12T06:16:58.155Z,99.90
2017-08-12T06:19:25.674Z,99.90
2017-08-12T06:21:53.266Z,99.90
2017-08-12T06:24:20.831Z,99.90
2017-08-12T06:26:48.339Z,99.90
2017-08-12T06:29:15.868Z,99.90
2017-08-12T06:31:43.371Z,99.90
2017-08-12T06:34:11.287Z,99.90
2017-08-12T06:36:38.819Z,99.90
2017-08-12T06:39:06.391Z,99.90
2017-08-12T06:41:33.946Z,99.90
2017-08-12T06:44:01.455Z,99.90
2017-08-12T06:46:28.967Z,99.90
2017-08-12T06:48:56.475Z,99.90
2017-08-12T06:51:23.987Z,99.90
2017-08-12T06:53:51.534Z,99.90
2017-08-12T06:56:19.055Z,99.90
2017-08-12T06:58:46.558Z,99.90
2017-08-12T07:01:14.075Z,99.90
2017-08-12T07:03:41.838Z,99.90
2017-08-12T07:06:09.378Z,99.90
2017-08-12T07:08:36.874Z,99.90
2017-08-12T07:11:05.172Z,99.90
2017-08-12T07:13:32.722Z,99.90
2017-08-12T07:16:00.792Z,99.90
2017-08-12T07:18:28.307Z,99.90
2017-08-12T07:20:55.918Z,99.90
2017-08-12T07:23:23.438Z,99.90
2017-08-12T07:25:51.648Z,99.90
2017-08-12T07:28:19.167Z,99.90
2017-08-12T07:30:46.762Z,99.90
2017-08-12T07:33:14.305Z,99.90
2017-08-12T07:35:42.598Z,99.40
2017-08-12T07:38:10.154Z,99.40
2017-08-12T07:40:37.650Z,99.70
2017-08-12T07:43:05.274Z,98.80
2017-08-12T07:45:33.481Z,99.50
2017-08-12T07:48:01.003Z,99.60
2017-08-12T07:50:29.005Z,99.00
2017-08-12T07:52:56.512Z,99.60
2017-08-12T07:55:24.814Z,99.90
2017-08-12T07:57:52.377Z,99.90
2017-08-12T08:00:19.886Z,98.60
2017-08-12T08:02:47.383Z,98.90
2017-08-12T08:05:15.274Z,99.20
2017-08-12T08:07:42.770Z,99.20
2017-08-12T08:10:10.291Z,98.90
2017-08-12T08:12:37.834Z,98.90
2017-08-12T08:15:05.391Z,98.70
2017-08-12T08:17:32.890Z,98.50
2017-08-12T08:20:00.428Z,98.90
2017-08-12T08:22:27.967Z,97.70
2017-08-12T08:24:55.469Z,98.10
2017-08-12T08:27:22.983Z,98.30
2017-08-12T08:29:50.486Z,98.70
2017-08-12T08:32:18.012Z,98.30
2017-08-12T08:34:45.515Z,97.50
2017-08-12T08:37:13.034Z,97.80
2017-08-12T08:39:40.530Z,98.20
2017-08-12T08:42:08.048Z,98.10
2017-08-12T08:44:35.556Z,97.80
2017-08-12T08:47:03.859Z,97.30
2017-08-12T08:49:31.373Z,97.30
2017-08-12T08:51:58.890Z,97.90
2017-08-12T08:54:26.387Z,96.60
2017-08-12T08:56:53.907Z,96.60
2017-08-12T08:59:21.406Z,96.80
2017-08-12T09:01:48.922Z,96.10
2017-08-12T09:04:16.462Z,96.70
2017-08-12T09:06:43.966Z,96.10
2017-08-12T09:09:11.483Z,95.50
2017-08-12T09:11:38.995Z,96.60
2017-08-12T09:14:06.510Z,95.70
2017-08-12T09:16:34.010Z,96.50
2017-08-12T09:19:01.526Z,96.70
2017-08-12T09:21:29.029Z,96.10
2017-08-12T09:23:56.643Z,96.80
2017-08-12T09:26:24.142Z,96.00
2017-08-12T09:28:51.659Z,95.80
2017-08-12T09:31:19.158Z,95.50
2017-08-12T09:33:46.683Z,94.70
2017-08-12T09:36:14.188Z,95.40
2017-08-12T09:38:41.705Z,96.30
2017-08-12T09:41:09.226Z,95.00
2017-08-12T09:43:36.751Z,94.50
2017-08-12T09:46:04.255Z,94.40
2017-08-12T09:48:31.807Z,94.80
2017-08-12T09:50:59.322Z,95.40
2017-08-12T09:53:26.818Z,94.20
2017-08-12T09:55:54.330Z,93.90
2017-08-12T09:58:21.831Z,94.20
2017-08-12T10:00:49.355Z,94.70
2017-08-12T10:03:17.486Z,95.30
2017-08-12T10:05:44.999Z,92.90
2017-08-12T10:08:13.311Z,93.50
2017-08-12T10:10:40.858Z,93.50
2017-08-12T10:13:08.579Z,93.00
2017-08-12T10:15:36.102Z,91.30
2017-08-12T10:18:03.607Z,91.30
2017-08-12T10:20:31.131Z,91.90
2017-08-12T10:22:58.639Z,90.70
2017-08-12T10:25:26.930Z,89.30
2017-08-12T10:27:54.485Z,89.30
2017-08-12T10:30:21.995Z,88.80
2017-08-12T10:32:49.515Z,88.20
2017-08-12T10:35:17.021Z,90.20
2017-08-12T10:37:44.546Z,88.50
2017-08-12T10:40:12.082Z,86.60
2017-08-12T10:42:39.647Z,84.40
2017-08-12T10:45:07.147Z,80.70
2017-08-12T10:47:34.664Z,81.70
2017-08-12T10:50:02.163Z,84.00
2017-08-12T10:52:29.687Z,81.80
2017-08-12T10:54:57.482Z,81.70
2017-08-12T10:57:25.007Z,80.40
2017-08-12T10:59:52.502Z,80.40
2017-08-12T11:02:20.031Z,81.00
2017-08-12T11:04:47.535Z,82.70
2017-08-12T11:07:15.133Z,80.20
2017-08-12T11:09:42.656Z,81.80
2017-08-12T11:12:10.159Z,82.20
2017-08-12T11:14:37.707Z,83.10
2017-08-12T11:17:05.211Z,84.00
2017-08-12T11:19:32.731Z,83.90
2017-08-12T11:22:00.231Z,83.30
2017-08-12T11:24:27.741Z,84.00
2017-08-12T11:26:55.250Z,85.20
2017-08-12T11:29:22.771Z,85.70
2017-08-12T11:31:50.316Z,83.80
2017-08-12T11:34:17.839Z,84.80
2017-08-12T11:36:46.115Z,84.50
2017-08-12T11:39:14.402Z,81.70
2017-08-12T11:41:41.979Z,81.50
2017-08-12T11:44:09.538Z,80.90
2017-08-12T11:46:37.044Z,80.00
2017-08-12T11:49:04.582Z,80.30
2017-08-12T11:51:32.111Z,80.70
2017-08-12T11:53:59.615Z,79.40
2017-08-12T11:56:27.140Z,78.30
2017-08-12T11:58:54.643Z,79.70
2017-08-12T12:01:22.251Z,76.80
2017-08-12T12:03:49.759Z,76.60
2017-08-12T12:06:17.279Z,77.50
2017-08-12T12:08:44.782Z,77.30
2017-08-12T12:11:12.298Z,77.70
2017-08-12T12:13:39.794Z,77.20
2017-08-12T12:16:07.311Z,76.50
2017-08-12T12:18:34.806Z,77.00
2017-08-12T12:21:03.119Z,77.00
2017-08-12T12:23:30.708Z,77.00
2017-08-12T12:25:58.993Z,72.90
2017-08-12T12:28:26.519Z,73.80
2017-08-12T12:30:54.107Z,73.80
2017-08-12T12:33:21.639Z,75.00
2017-08-12T12:35:49.138Z,73.60
2017-08-12T12:38:16.663Z,73.80
2017-08-12T12:40:44.163Z,74.10
2017-08-12T12:43:11.683Z,75.10
2017-08-12T12:45:39.188Z,74.30
2017-08-12T12:48:06.719Z,74.30
2017-08-12T12:50:34.223Z,74.40
2017-08-12T12:53:02.495Z,76.30
2017-08-12T12:55:30.783Z,75.90
2017-08-12T12:57:59.047Z,77.60
2017-08-12T13:00:27.335Z,76.90
2017-08-12T13:02:55.594Z,76.70
2017-08-12T13:05:23.898Z,78.20
2017-08-12T13:07:51.398Z,77.30
2017-08-12T13:10:18.920Z,77.70
2017-08-12T13:12:46.423Z,76.80
2017-08-12T13:15:13.952Z,77.20
2017-08-12T13:17:41.496Z,79.00
2017-08-12T13:20:09.053Z,77.70
2017-08-12T13:22:36.558Z,77.30
2017-08-12T13:25:04.079Z,76.70
2017-08-12T13:27:32.039Z,77.40
2017-08-12T13:29:59.550Z,78.30
2017-08-12T13:32:27.146Z,77.90
2017-08-12T13:34:54.711Z,77.80
2017-08-12T13:37:22.215Z,73.10
2017-08-12T13:39:49.823Z,72.70
2017-08-12T13:42:17.391Z,70.30
2017-08-12T13:44:44.895Z,71.30
2017-08-12T13:47:12.420Z,70.20
2017-08-12T13:49:39.922Z,70.50
2017-08-12T13:52:07.450Z,71.10
2017-08-12T13:54:34.951Z,70.30
2017-08-12T13:57:03.870Z,70.80
2017-08-12T13:59:31.369Z,70.90
2017-08-12T14:01:58.886Z,71.20
2017-08-12T14:04:26.392Z,71.60
2017-08-12T14:06:53.911Z,71.60
2017-08-12T14:09:21.410Z,72.00
2017-08-12T14:11:49.014Z,73.50
2017-08-12T14:14:16.516Z,73.00
2017-08-12T14:16:44.038Z,71.60
2017-08-12T14:19:12.313Z,72.20
2017-08-12T14:21:40.790Z,71.60
2017-08-12T14:24:08.314Z,72.10
2017-08-12T14:26:35.819Z,72.50
2017-08-12T14:29:03.343Z,76.50
2017-08-12T14:31:31.606Z,73.40
2017-08-12T14:33:59.222Z,73.30
2017-08-12T14:36:26.727Z,72.20
2017-08-12T14:38:55.027Z,73.10
2017-08-12T14:41:22.531Z,73.00
2017-08-12T14:43:50.146Z,72.60
2017-08-12T14:46:17.678Z,72.20
2017-08-12T14:48:45.963Z,72.40
2017-08-12T14:51:14.239Z,72.00
2017-08-12T14:53:42.523Z,72.50
2017-08-12T14:56:10.794Z,74.50
2017-08-12T14:58:39.094Z,71.90
2017-08-12T15:01:07.099Z,71.90
2017-08-12T15:03:35.111Z,70.90
2017-08-12T15:06:03.406Z,68.60
2017-08-12T15:08:30.918Z,68.50
2017-08-12T15:10:58.446Z,67.00
2017-08-12T15:13:26.563Z,67.10
2017-08-12T15:15:54.852Z,66.30
2017-08-12T15:18:23.119Z,66.80
2017-08-12T15:20:51.408Z,66.20
2017-08-12T15:23:18.978Z,66.20
2017-08-12T15:25:46.495Z,67.50
2017-08-12T15:28:13.994Z,68.20
2017-08-12T15:30:41.550Z,67.40
2017-08-12T15:33:09.470Z,68.80
2017-08-12T15:35:37.083Z,69.60
2017-08-12T15:38:04.638Z,70.90
2017-08-12T15:40:32.163Z,68.80
2017-08-12T15:42:59.754Z,69.70
2017-08-12T15:45:27.857Z,70.50
2017-08-12T15:47:55.378Z,69.90
2017-08-12T15:50:22.883Z,70.30
2017-08-12T15:52:50.408Z,71.00
2017-08-12T15:55:17.919Z,71.70
2017-08-12T15:57:45.431Z,72.50
2017-08-12T16:00:12.979Z,71.60
2017-08-12T16:02:40.535Z,72.00
2017-08-12T16:05:08.100Z,72.30
2017-08-12T16:07:35.631Z,72.60
2017-08-12T16:10:03.908Z,71.60
2017-08-12T16:12:32.212Z,71.10
2017-08-12T16:15:00.243Z,71.10
2017-08-12T16:17:28.552Z,73.30
2017-08-12T16:19:56.162Z,72.80
2017-08-12T16:22:23.672Z,73.10
2017-08-12T16:24:51.195Z,73.10
2017-08-12T16:27:18.699Z,73.10
2017-08-12T16:29:46.242Z,71.00
2017-08-12T16:32:13.742Z,72.60
2017-08-12T16:34:41.379Z,71.30
2017-08-12T16:37:08.890Z,72.50
2017-08-12T16:39:36.476Z,71.70
2017-08-12T16:42:04.395Z,70.70
2017-08-12T16:44:31.915Z,72.40
2017-08-12T16:46:59.411Z,71.20
2017-08-12T16:49:27.018Z,71.20
2017-08-12T16:51:54.515Z,73.10
2017-08-12T16:54:22.142Z,73.00
2017-08-12T16:56:49.895Z,72.40
2017-08-12T16:59:17.461Z,72.00
2017-08-12T17:01:44.984Z,71.80
2017-08-12T17:04:13.007Z,73.00
2017-08-12T17:06:40.522Z,72.40
2017-08-12T17:09:09.319Z,73.20
2017-08-12T17:11:37.726Z,73.80
2017-08-12T17:14:05.228Z,73.80
2017-08-12T17:16:32.755Z,73.30
2017-08-12T17:19:00.260Z,74.10
2017-08-12T17:21:28.573Z,75.00
2017-08-12T17:23:56.075Z,74.60
2017-08-12T17:26:23.597Z,74.90
2017-08-12T17:28:51.138Z,75.20
2017-08-12T17:31:18.702Z,75.00
2017-08-12T17:33:46.208Z,75.20
2017-08-12T17:36:13.715Z,76.10
2017-08-12T17:38:41.274Z,77.00
2017-08-12T17:41:08.783Z,76.70
2017-08-12T17:43:36.298Z,76.00
2017-08-12T17:46:03.799Z,76.00
2017-08-12T17:48:31.320Z,76.20
2017-08-12T17:50:58.822Z,77.10
2017-08-12T17:53:26.423Z,77.40
2017-08-12T17:55:53.934Z,77.20
2017-08-12T17:58:21.446Z,76.90
2017-08-12T18:00:48.943Z,77.20
2017-08-12T18:03:16.563Z,77.80
2017-08-12T18:05:44.075Z,77.60
2017-08-12T18:08:13.207Z,77.90
2017-08-12T18:10:40.702Z,77.60
2017-08-12T18:13:08.201Z,78.30
2017-08-12T18:15:36.492Z,78.60
2017-08-12T18:18:04.059Z,78.60
2017-08-12T18:20:31.574Z,78.10
2017-08-12T18:22:59.193Z,77.80
2017-08-12T18:25:26.707Z,78.30
2017-08-12T18:27:54.974Z,79.60
2017-08-12T18:30:22.575Z,79.60
2017-08-12T18:32:50.084Z,79.70
2017-08-12T18:35:17.696Z,79.50
2017-08-12T18:37:45.198Z,79.80
2017-08-12T18:40:12.732Z,80.00
2017-08-12T18:42:40.234Z,79.40
2017-08-12T18:45:08.507Z,80.30
2017-08-12T18:47:36.042Z,80.30
2017-08-12T18:50:03.543Z,79.30
2017-08-12T18:52:31.831Z,80.00
2017-08-12T18:54:59.390Z,80.00
2017-08-12T18:57:26.948Z,80.60
2017-08-12T18:59:54.450Z,80.80
2017-08-12T19:02:21.974Z,80.50
2017-08-12T19:04:49.686Z,81.30
2017-08-12T19:07:17.202Z,81.30
2017-08-12T19:09:44.708Z,82.30
2017-08-12T19:12:12.312Z,82.20
2017-08-12T19:14:40.272Z,82.60
2017-08-12T19:17:07.793Z,83.80
2017-08-12T19:19:35.390Z,85.00
2017-08-12T19:22:02.885Z,83.50
2017-08-12T19:24:30.396Z,83.90
2017-08-12T19:26:57.903Z,84.20
2017-08-12T19:29:25.419Z,85.00
2017-08-12T19:31:53.332Z,86.70
2017-08-12T19:34:20.846Z,87.20
2017-08-12T19:36:48.407Z,89.70
2017-08-12T19:39:15.930Z,90.00
2017-08-12T19:41:43.430Z,91.50
2017-08-12T19:44:11.135Z,92.00
2017-08-12T19:46:38.647Z,92.30
2017-08-12T19:49:06.206Z,92.20
2017-08-12T19:51:33.710Z,91.80
2017-08-12T19:54:01.211Z,92.00
2017-08-12T19:56:28.774Z,92.70
2017-08-12T19:58:57.214Z,93.00
2017-08-12T20:01:24.746Z,92.50
2017-08-12T20:03:52.255Z,92.30
2017-08-12T20:06:20.552Z,94.10
2017-08-12T20:08:48.054Z,94.10
2017-08-12T20:11:15.571Z,93.90
2017-08-12T20:13:43.077Z,93.60
2017-08-12T20:16:10.595Z,93.30
2017-08-12T20:18:38.107Z,93.70
2017-08-12T20:21:06.395Z,93.60
2017-08-12T20:23:34.666Z,93.20
2017-08-12T20:26:03.088Z,93.30
2017-08-12T20:28:30.604Z,93.30
2017-08-12T20:30:58.954Z,93.90
2017-08-12T20:33:26.459Z,93.80
2017-08-12T20:35:54.021Z,94.10
2017-08-12T20:38:21.543Z,94.00
2017-08-12T20:40:49.134Z,94.00
2017-08-12T20:43:16.655Z,94.00
2017-08-12T20:45:44.159Z,95.10
2017-08-12T20:48:11.674Z,95.80
2017-08-12T20:50:39.180Z,94.50
2017-08-12T20:53:06.731Z,94.30
2017-08-12T20:55:34.234Z,95.00
2017-08-12T20:58:01.841Z,95.90
2017-08-12T21:00:29.338Z,95.50
2017-08-12T21:02:56.862Z,96.20
2017-08-12T21:05:24.943Z,96.60
2017-08-12T21:07:53.198Z,96.70
2017-08-12T21:10:20.723Z,96.70
2017-08-12T21:12:48.326Z,97.10
2017-08-12T21:15:16.043Z,97.20
2017-08-12T21:17:43.651Z,97.10
2017-08-12T21:20:11.167Z,97.30
2017-08-12T21:22:38.666Z,97.10
2017-08-12T21:25:06.199Z,96.90
2017-08-12T21:27:34.499Z,96.60
2017-08-12T21:30:02.016Z,96.60
2017-08-12T21:32:29.519Z,97.00
2017-08-12T21:34:57.054Z,96.70
2017-08-12T21:37:25.323Z,96.60
2017-08-12T21:39:53.597Z,96.50
2017-08-12T21:42:22.255Z,96.80
2017-08-12T21:44:49.875Z,96.70
2017-08-12T21:47:17.394Z,96.60
2017-08-12T21:49:44.991Z,96.50
2017-08-12T21:52:12.551Z,96.70
2017-08-12T21:54:40.107Z,96.70
2017-08-12T21:57:07.630Z,96.90
2017-08-12T21:59:35.939Z,96.90
2017-08-12T22:02:03.486Z,96.90
2017-08-12T22:04:32.798Z,97.20
2017-08-12T22:07:00.365Z,97.20
2017-08-12T22:09:27.871Z,97.40
2017-08-12T22:11:55.380Z,97.70
2017-08-12T22:14:22.903Z,97.70
2017-08-12T22:16:51.175Z,98.60
2017-08-12T22:19:18.710Z,98.40
2017-08-12T22:21:46.219Z,98.20
2017-08-12T22:24:14.497Z,97.60
2017-08-12T22:26:42.010Z,97.80
2017-08-12T22:29:09.536Z,98.00
2017-08-12T22:31:37.735Z,98.50
2017-08-12T22:34:05.259Z,98.20
2017-08-12T22:36:32.770Z,97.70
2017-08-12T22:39:00.413Z,97.90
2017-08-12T22:41:27.913Z,97.80
2017-08-12T22:43:56.207Z,97.70
2017-08-12T22:46:23.877Z,97.70
2017-08-12T22:48:51.423Z,98.10
2017-08-12T22:51:18.947Z,97.80
2017-08-12T22:53:47.258Z,98.40
2017-08-12T22:56:14.783Z,98.30
2017-08-12T22:58:43.683Z,98.20
2017-08-12T23:01:11.966Z,98.40
2017-08-12T23:03:40.259Z,98.70
2017-08-12T23:06:07.780Z,98.70
2017-08-12T23:08:36.543Z,98.90
2017-08-12T23:11:04.159Z,98.90
2017-08-12T23:13:31.667Z,98.80
2017-08-12T23:15:59.200Z,98.80
2017-08-12T23:18:26.744Z,98.80
2017-08-12T23:20:54.256Z,98.70
2017-08-12T23:23:21.779Z,99.20
2017-08-12T23:25:49.283Z,98.90
2017-08-12T23:28:17.571Z,99.10
2017-08-12T23:30:45.843Z,99.00
2017-08-12T23:33:14.127Z,98.50
2017-08-12T23:35:41.698Z,98.50
2017-08-12T23:38:09.219Z,98.70
2017-08-12T23:40:36.812Z,98.80
2017-08-12T23:43:04.370Z,99.10
2017-08-12T23:45:31.867Z,99.20
2017-08-12T23:47:59.388Z,99.10
2017-08-12T23:50:26.967Z,99.00
2017-08-12T23:52:54.500Z,98.90
2017-08-12T23:55:22.166Z,97.50
2017-08-12T23:57:50.091Z,97.40
